sensor_id;sensor_type;location;lat;lon;timestamp;P1;durP1;ratioP1;P2;durP2;ratioP2
38567;SDS011;24338;48.280;10.970;2022-07-29T00:02:03;5.35;;;2.13;;
38567;SDS011;24338;48.280;10.970;2022-07-29T00:04:30;4.07;;;1.60;;
38567;SDS011;24338;48.280;10.970;2022-07-29T00:06:57;3.13;;;1.75;;
38567;SDS011;24338;48.280;10.970;2022-07-29T00:09:24;2.60;;;1.85;;
38567;SDS011;24338;48.280;10.970;2022-07-29T00:11:51;4.20;;;1.90;;
38567;SDS011;24338;48.280;10.970;2022-07-29T00:14:18;3.03;;;1.58;;
38567;SDS011;24338;48.280;10.970;2022-07-29T00:16:45;3.30;;;1.88;;
38567;SDS011;24338;48.280;10.970;2022-07-29T00:19:12;4.25;;;2.22;;
38567;SDS011;24338;48.280;10.970;2022-07-29T00:21:38;3.00;;;1.92;;
38567;SDS011;24338;48.280;10.970;2022-07-29T00:24:05;4.38;;;2.30;;
38567;SDS011;24338;48.280;10.970;2022-07-29T00:26:32;3.10;;;1.75;;
38567;SDS011;24338;48.280;10.970;2022-07-29T00:29:00;4.32;;;2.38;;
38567;SDS011;24338;48.280;10.970;2022-07-29T00:31:48;3.30;;;2.15;;
38567;SDS011;24338;48.280;10.970;2022-07-29T00:34:16;5.68;;;2.35;;
38567;SDS011;24338;48.280;10.970;2022-07-29T00:37:01;3.45;;;2.38;;
38567;SDS011;24338;48.280;10.970;2022-07-29T00:39:28;4.57;;;2.58;;
38567;SDS011;24338;48.280;10.970;2022-07-29T00:41:55;3.17;;;2.05;;
38567;SDS011;24338;48.280;10.970;2022-07-29T00:44:23;3.95;;;2.20;;
38567;SDS011;24338;48.280;10.970;2022-07-29T00:46:50;4.32;;;2.83;;
38567;SDS011;24338;48.280;10.970;2022-07-29T00:49:17;4.60;;;3.10;;
38567;SDS011;24338;48.280;10.970;2022-07-29T00:51:44;5.03;;;3.35;;
38567;SDS011;24338;48.280;10.970;2022-07-29T00:54:11;4.25;;;2.95;;
38567;SDS011;24338;48.280;10.970;2022-07-29T00:56:39;6.00;;;3.22;;
38567;SDS011;24338;48.280;10.970;2022-07-29T00:59:06;4.68;;;3.72;;
38567;SDS011;24338;48.280;10.970;2022-07-29T01:01:33;4.60;;;3.42;;
38567;SDS011;24338;48.280;10.970;2022-07-29T01:04:00;4.38;;;3.50;;
38567;SDS011;24338;48.280;10.970;2022-07-29T01:06:27;5.30;;;3.35;;
38567;SDS011;24338;48.280;10.970;2022-07-29T01:08:54;6.15;;;3.47;;
38567;SDS011;24338;48.280;10.970;2022-07-29T01:11:22;5.20;;;3.15;;
38567;SDS011;24338;48.280;10.970;2022-07-29T01:13:49;4.88;;;3.45;;
38567;SDS011;24338;48.280;10.970;2022-07-29T01:16:33;5.93;;;3.38;;
38567;SDS011;24338;48.280;10.970;2022-07-29T01:19:33;5.53;;;3.75;;
38567;SDS011;24338;48.280;10.970;2022-07-29T01:30:22;4.45;;;3.22;;
38567;SDS011;24338;48.280;10.970;2022-07-29T01:32:54;5.60;;;3.70;;
38567;SDS011;24338;48.280;10.970;2022-07-29T01:35:28;5.70;;;3.58;;
38567;SDS011;24338;48.280;10.970;2022-07-29T01:38:08;5.50;;;3.70;;
38567;SDS011;24338;48.280;10.970;2022-07-29T01:40:46;5.47;;;3.72;;
38567;SDS011;24338;48.280;10.970;2022-07-29T01:43:20;5.70;;;2.80;;
38567;SDS011;24338;48.280;10.970;2022-07-29T01:48:26;5.47;;;3.47;;
38567;SDS011;24338;48.280;10.970;2022-07-29T01:56:31;5.43;;;3.35;;
38567;SDS011;24338;48.280;10.970;2022-07-29T01:59:00;6.93;;;3.47;;
38567;SDS011;24338;48.280;10.970;2022-07-29T02:01:29;5.60;;;3.58;;
38567;SDS011;24338;48.280;10.970;2022-07-29T02:03:59;6.05;;;3.83;;
38567;SDS011;24338;48.280;10.970;2022-07-29T02:06:29;5.88;;;3.83;;
38567;SDS011;24338;48.280;10.970;2022-07-29T02:08:58;5.85;;;3.05;;
38567;SDS011;24338;48.280;10.970;2022-07-29T02:11:27;6.78;;;3.78;;
38567;SDS011;24338;48.280;10.970;2022-07-29T02:13:56;6.10;;;3.65;;
38567;SDS011;24338;48.280;10.970;2022-07-29T02:16:24;4.90;;;3.35;;
38567;SDS011;24338;48.280;10.970;2022-07-29T02:18:55;5.38;;;3.38;;
38567;SDS011;24338;48.280;10.970;2022-07-29T02:21:24;6.60;;;3.63;;
38567;SDS011;24338;48.280;10.970;2022-07-29T02:23:53;5.57;;;3.75;;
38567;SDS011;24338;48.280;10.970;2022-07-29T02:26:23;5.13;;;3.35;;
38567;SDS011;24338;48.280;10.970;2022-07-29T02:28:52;7.35;;;3.75;;
38567;SDS011;24338;48.280;10.970;2022-07-29T02:31:23;7.80;;;3.58;;
38567;SDS011;24338;48.280;10.970;2022-07-29T02:33:52;4.57;;;3.30;;
38567;SDS011;24338;48.280;10.970;2022-07-29T02:36:21;8.50;;;3.25;;
38567;SDS011;24338;48.280;10.970;2022-07-29T02:38:49;3.67;;;2.58;;
38567;SDS011;24338;48.280;10.970;2022-07-29T02:41:19;5.60;;;3.15;;
38567;SDS011;24338;48.280;10.970;2022-07-29T02:43:50;5.22;;;2.67;;
38567;SDS011;24338;48.280;10.970;2022-07-29T02:46:31;5.60;;;2.78;;
38567;SDS011;24338;48.280;10.970;2022-07-29T02:49:08;5.70;;;2.70;;
38567;SDS011;24338;48.280;10.970;2022-07-29T02:54:23;4.50;;;2.50;;
38567;SDS011;24338;48.280;10.970;2022-07-29T02:56:58;6.78;;;3.30;;
38567;SDS011;24338;48.280;10.970;2022-07-29T02:59:27;5.10;;;2.92;;
38567;SDS011;24338;48.280;10.970;2022-07-29T03:01:57;5.47;;;3.10;;
38567;SDS011;24338;48.280;10.970;2022-07-29T03:04:25;6.32;;;2.78;;
38567;SDS011;24338;48.280;10.970;2022-07-29T03:06:54;7.45;;;2.53;;
38567;SDS011;24338;48.280;10.970;2022-07-29T03:09:22;6.47;;;2.60;;
38567;SDS011;24338;48.280;10.970;2022-07-29T03:11:50;6.80;;;2.45;;
38567;SDS011;24338;48.280;10.970;2022-07-29T03:14:18;6.00;;;2.70;;
38567;SDS011;24338;48.280;10.970;2022-07-29T03:16:46;5.15;;;2.95;;
38567;SDS011;24338;48.280;10.970;2022-07-29T03:19:14;8.65;;;2.47;;
38567;SDS011;24338;48.280;10.970;2022-07-29T03:21:41;6.80;;;2.85;;
38567;SDS011;24338;48.280;10.970;2022-07-29T03:24:08;6.85;;;2.85;;
38567;SDS011;24338;48.280;10.970;2022-07-29T03:26:36;4.35;;;2.75;;
38567;SDS011;24338;48.280;10.970;2022-07-29T03:29:03;5.45;;;2.88;;
38567;SDS011;24338;48.280;10.970;2022-07-29T03:31:30;3.05;;;2.33;;
38567;SDS011;24338;48.280;10.970;2022-07-29T03:33:58;5.65;;;2.47;;
38567;SDS011;24338;48.280;10.970;2022-07-29T03:36:25;4.55;;;2.92;;
38567;SDS011;24338;48.280;10.970;2022-07-29T03:38:53;4.65;;;2.55;;
38567;SDS011;24338;48.280;10.970;2022-07-29T03:41:20;6.13;;;2.80;;
38567;SDS011;24338;48.280;10.970;2022-07-29T03:43:49;4.65;;;2.67;;
38567;SDS011;24338;48.280;10.970;2022-07-29T03:46:19;5.53;;;2.53;;
38567;SDS011;24338;48.280;10.970;2022-07-29T03:48:49;5.18;;;2.75;;
38567;SDS011;24338;48.280;10.970;2022-07-29T03:51:22;7.50;;;2.67;;
38567;SDS011;24338;48.280;10.970;2022-07-29T03:53:59;7.78;;;2.72;;
38567;SDS011;24338;48.280;10.970;2022-07-29T03:56:37;5.78;;;2.53;;
38567;SDS011;24338;48.280;10.970;2022-07-29T03:59:06;8.70;;;2.70;;
38567;SDS011;24338;48.280;10.970;2022-07-29T04:01:34;6.82;;;3.03;;
38567;SDS011;24338;48.280;10.970;2022-07-29T04:04:02;6.50;;;2.72;;
38567;SDS011;24338;48.280;10.970;2022-07-29T04:07:04;4.65;;;2.60;;
38567;SDS011;24338;48.280;10.970;2022-07-29T04:09:23;5.72;;;2.65;;
38567;SDS011;24338;48.280;10.970;2022-07-29T04:11:50;5.65;;;2.70;;
38567;SDS011;24338;48.280;10.970;2022-07-29T04:14:29;6.72;;;2.88;;
38567;SDS011;24338;48.280;10.970;2022-07-29T04:17:00;4.55;;;1.63;;
38567;SDS011;24338;48.280;10.970;2022-07-29T04:19:29;6.20;;;2.72;;
38567;SDS011;24338;48.280;10.970;2022-07-29T04:21:56;7.68;;;2.63;;
38567;SDS011;24338;48.280;10.970;2022-07-29T04:24:24;3.97;;;1.92;;
38567;SDS011;24338;48.280;10.970;2022-07-29T04:26:51;3.85;;;2.33;;
38567;SDS011;24338;48.280;10.970;2022-07-29T04:29:19;4.20;;;2.25;;
38567;SDS011;24338;48.280;10.970;2022-07-29T04:31:46;4.30;;;2.67;;
38567;SDS011;24338;48.280;10.970;2022-07-29T04:34:13;9.00;;;2.40;;
38567;SDS011;24338;48.280;10.970;2022-07-29T04:36:40;7.40;;;2.38;;
38567;SDS011;24338;48.280;10.970;2022-07-29T04:39:07;3.47;;;1.95;;
38567;SDS011;24338;48.280;10.970;2022-07-29T04:41:34;4.00;;;2.05;;
38567;SDS011;24338;48.280;10.970;2022-07-29T04:44:01;4.88;;;2.42;;
38567;SDS011;24338;48.280;10.970;2022-07-29T04:46:32;7.68;;;3.05;;
38567;SDS011;24338;48.280;10.970;2022-07-29T04:49:00;4.68;;;2.47;;
38567;SDS011;24338;48.280;10.970;2022-07-29T04:51:27;5.50;;;2.47;;
38567;SDS011;24338;48.280;10.970;2022-07-29T04:53:54;7.38;;;2.97;;
38567;SDS011;24338;48.280;10.970;2022-07-29T04:56:21;5.97;;;2.95;;
38567;SDS011;24338;48.280;10.970;2022-07-29T04:58:48;4.55;;;2.85;;
38567;SDS011;24338;48.280;10.970;2022-07-29T05:01:14;11.20;;;3.10;;
38567;SDS011;24338;48.280;10.970;2022-07-29T05:03:41;5.85;;;2.67;;
38567;SDS011;24338;48.280;10.970;2022-07-29T05:06:08;5.53;;;2.60;;
38567;SDS011;24338;48.280;10.970;2022-07-29T05:08:35;6.63;;;2.95;;
38567;SDS011;24338;48.280;10.970;2022-07-29T05:11:02;6.65;;;3.00;;
38567;SDS011;24338;48.280;10.970;2022-07-29T05:13:37;5.47;;;2.90;;
38567;SDS011;24338;48.280;10.970;2022-07-29T05:16:11;6.28;;;2.80;;
38567;SDS011;24338;48.280;10.970;2022-07-29T05:18:39;4.82;;;2.92;;
38567;SDS011;24338;48.280;10.970;2022-07-29T05:21:06;5.63;;;3.15;;
38567;SDS011;24338;48.280;10.970;2022-07-29T05:23:33;7.82;;;2.97;;
38567;SDS011;24338;48.280;10.970;2022-07-29T05:26:00;4.10;;;2.15;;
38567;SDS011;24338;48.280;10.970;2022-07-29T05:28:27;4.13;;;2.17;;
38567;SDS011;24338;48.280;10.970;2022-07-29T05:30:54;2.88;;;1.35;;
38567;SDS011;24338;48.280;10.970;2022-07-29T05:33:21;6.30;;;1.98;;
38567;SDS011;24338;48.280;10.970;2022-07-29T05:36:03;2.85;;;1.17;;
38567;SDS011;24338;48.280;10.970;2022-07-29T05:38:33;2.67;;;1.00;;
38567;SDS011;24338;48.280;10.970;2022-07-29T05:41:00;4.85;;;1.30;;
38567;SDS011;24338;48.280;10.970;2022-07-29T05:43:27;5.43;;;1.40;;
38567;SDS011;24338;48.280;10.970;2022-07-29T05:45:54;4.15;;;1.10;;
38567;SDS011;24338;48.280;10.970;2022-07-29T05:48:22;2.83;;;1.67;;
38567;SDS011;24338;48.280;10.970;2022-07-29T05:50:49;4.20;;;1.27;;
38567;SDS011;24338;48.280;10.970;2022-07-29T05:53:16;5.82;;;1.48;;
38567;SDS011;24338;48.280;10.970;2022-07-29T05:55:46;8.32;;;1.52;;
38567;SDS011;24338;48.280;10.970;2022-07-29T05:58:13;3.28;;;1.20;;
38567;SDS011;24338;48.280;10.970;2022-07-29T06:00:40;4.18;;;1.52;;
38567;SDS011;24338;48.280;10.970;2022-07-29T06:03:07;2.72;;;1.15;;
38567;SDS011;24338;48.280;10.970;2022-07-29T06:05:33;3.80;;;1.52;;
38567;SDS011;24338;48.280;10.970;2022-07-29T06:08:00;2.60;;;1.15;;
38567;SDS011;24338;48.280;10.970;2022-07-29T06:10:27;4.38;;;1.25;;
38567;SDS011;24338;48.280;10.970;2022-07-29T06:12:54;6.75;;;1.30;;
38567;SDS011;24338;48.280;10.970;2022-07-29T06:15:21;3.83;;;1.50;;
38567;SDS011;24338;48.280;10.970;2022-07-29T06:17:48;4.05;;;1.42;;
38567;SDS011;24338;48.280;10.970;2022-07-29T06:20:30;3.65;;;1.25;;
38567;SDS011;24338;48.280;10.970;2022-07-29T06:22:58;3.90;;;1.67;;
38567;SDS011;24338;48.280;10.970;2022-07-29T06:25:25;3.05;;;1.23;;
38567;SDS011;24338;48.280;10.970;2022-07-29T06:27:55;3.47;;;1.48;;
38567;SDS011;24338;48.280;10.970;2022-07-29T06:30:23;5.40;;;1.60;;
38567;SDS011;24338;48.280;10.970;2022-07-29T06:32:50;3.65;;;1.20;;
38567;SDS011;24338;48.280;10.970;2022-07-29T06:35:17;2.78;;;1.58;;
38567;SDS011;24338;48.280;10.970;2022-07-29T06:38:04;3.40;;;1.67;;
38567;SDS011;24338;48.280;10.970;2022-07-29T06:40:51;2.92;;;1.45;;
38567;SDS011;24338;48.280;10.970;2022-07-29T06:43:31;4.13;;;2.30;;
38567;SDS011;24338;48.280;10.970;2022-07-29T06:46:00;6.22;;;1.63;;
38567;SDS011;24338;48.280;10.970;2022-07-29T06:48:30;4.55;;;1.50;;
38567;SDS011;24338;48.280;10.970;2022-07-29T06:50:57;3.47;;;1.33;;
38567;SDS011;24338;48.280;10.970;2022-07-29T06:53:25;4.32;;;1.55;;
38567;SDS011;24338;48.280;10.970;2022-07-29T06:55:52;2.00;;;1.10;;
38567;SDS011;24338;48.280;10.970;2022-07-29T06:58:19;4.00;;;1.35;;
38567;SDS011;24338;48.280;10.970;2022-07-29T07:00:47;3.72;;;1.35;;
38567;SDS011;24338;48.280;10.970;2022-07-29T07:03:14;4.38;;;1.25;;
38567;SDS011;24338;48.280;10.970;2022-07-29T07:05:42;3.65;;;1.60;;
38567;SDS011;24338;48.280;10.970;2022-07-29T07:08:09;2.97;;;1.35;;
38567;SDS011;24338;48.280;10.970;2022-07-29T07:10:36;4.95;;;1.55;;
38567;SDS011;24338;48.280;10.970;2022-07-29T07:13:03;5.88;;;1.52;;
38567;SDS011;24338;48.280;10.970;2022-07-29T07:15:31;4.88;;;1.35;;
38567;SDS011;24338;48.280;10.970;2022-07-29T07:18:05;3.22;;;1.58;;
38567;SDS011;24338;48.280;10.970;2022-07-29T07:20:33;4.10;;;1.63;;
38567;SDS011;24338;48.280;10.970;2022-07-29T07:23:00;2.92;;;1.60;;
38567;SDS011;24338;48.280;10.970;2022-07-29T07:25:27;4.55;;;1.52;;
38567;SDS011;24338;48.280;10.970;2022-07-29T07:27:54;3.05;;;1.08;;
38567;SDS011;24338;48.280;10.970;2022-07-29T07:30:21;3.97;;;1.55;;
38567;SDS011;24338;48.280;10.970;2022-07-29T07:32:48;2.42;;;1.40;;
38567;SDS011;24338;48.280;10.970;2022-07-29T07:35:15;2.45;;;1.33;;
38567;SDS011;24338;48.280;10.970;2022-07-29T07:37:42;4.38;;;1.30;;
38567;SDS011;24338;48.280;10.970;2022-07-29T07:40:09;2.08;;;0.93;;
38567;SDS011;24338;48.280;10.970;2022-07-29T07:42:44;4.65;;;1.10;;
38567;SDS011;24338;48.280;10.970;2022-07-29T07:45:12;1.70;;;0.90;;
38567;SDS011;24338;48.280;10.970;2022-07-29T07:47:41;1.75;;;1.00;;
38567;SDS011;24338;48.280;10.970;2022-07-29T07:50:09;1.63;;;0.90;;
38567;SDS011;24338;48.280;10.970;2022-07-29T07:52:50;1.55;;;0.80;;
38567;SDS011;24338;48.280;10.970;2022-07-29T07:55:19;1.98;;;0.95;;
38567;SDS011;24338;48.280;10.970;2022-07-29T07:57:46;2.55;;;1.13;;
38567;SDS011;24338;48.280;10.970;2022-07-29T08:00:13;3.80;;;1.17;;
38567;SDS011;24338;48.280;10.970;2022-07-29T08:02:42;2.78;;;0.82;;
38567;SDS011;24338;48.280;10.970;2022-07-29T08:05:09;3.13;;;1.13;;
38567;SDS011;24338;48.280;10.970;2022-07-29T08:07:38;3.30;;;1.08;;
38567;SDS011;24338;48.280;10.970;2022-07-29T08:10:05;3.30;;;1.30;;
38567;SDS011;24338;48.280;10.970;2022-07-29T08:12:32;3.25;;;1.30;;
38567;SDS011;24338;48.280;10.970;2022-07-29T08:14:59;2.90;;;1.33;;
38567;SDS011;24338;48.280;10.970;2022-07-29T08:17:26;2.67;;;1.10;;
38567;SDS011;24338;48.280;10.970;2022-07-29T08:19:53;1.90;;;1.10;;
38567;SDS011;24338;48.280;10.970;2022-07-29T08:22:20;3.17;;;1.38;;
38567;SDS011;24338;48.280;10.970;2022-07-29T08:24:47;3.50;;;1.30;;
38567;SDS011;24338;48.280;10.970;2022-07-29T08:27:20;3.20;;;1.50;;
38567;SDS011;24338;48.280;10.970;2022-07-29T08:30:08;3.15;;;1.30;;
38567;SDS011;24338;48.280;10.970;2022-07-29T08:32:36;3.97;;;1.45;;
38567;SDS011;24338;48.280;10.970;2022-07-29T08:35:21;2.83;;;1.30;;
38567;SDS011;24338;48.280;10.970;2022-07-29T08:37:49;2.47;;;1.17;;
38567;SDS011;24338;48.280;10.970;2022-07-29T08:40:16;4.70;;;1.17;;
38567;SDS011;24338;48.280;10.970;2022-07-29T08:42:43;3.25;;;1.40;;
38567;SDS011;24338;48.280;10.970;2022-07-29T08:45:10;2.47;;;1.40;;
38567;SDS011;24338;48.280;10.970;2022-07-29T08:47:38;2.92;;;1.20;;
38567;SDS011;24338;48.280;10.970;2022-07-29T08:50:06;4.72;;;1.05;;
38567;SDS011;24338;48.280;10.970;2022-07-29T08:52:39;2.83;;;1.45;;
38567;SDS011;24338;48.280;10.970;2022-07-29T08:55:08;3.22;;;1.58;;
38567;SDS011;24338;48.280;10.970;2022-07-29T08:57:36;2.80;;;1.13;;
38567;SDS011;24338;48.280;10.970;2022-07-29T09:00:19;3.55;;;1.65;;
38567;SDS011;24338;48.280;10.970;2022-07-29T09:02:48;5.07;;;1.70;;
38567;SDS011;24338;48.280;10.970;2022-07-29T09:05:22;4.22;;;1.65;;
38567;SDS011;24338;48.280;10.970;2022-07-29T09:07:52;2.70;;;1.40;;
38567;SDS011;24338;48.280;10.970;2022-07-29T09:10:19;4.43;;;1.95;;
38567;SDS011;24338;48.280;10.970;2022-07-29T09:12:46;2.35;;;1.05;;
38567;SDS011;24338;48.280;10.970;2022-07-29T09:15:14;5.75;;;2.17;;
38567;SDS011;24338;48.280;10.970;2022-07-29T09:17:42;1.92;;;1.30;;
38567;SDS011;24338;48.280;10.970;2022-07-29T09:20:15;5.30;;;1.60;;
38567;SDS011;24338;48.280;10.970;2022-07-29T09:22:43;2.30;;;1.40;;
38567;SDS011;24338;48.280;10.970;2022-07-29T09:25:31;2.88;;;1.80;;
38567;SDS011;24338;48.280;10.970;2022-07-29T09:28:05;4.18;;;1.88;;
38567;SDS011;24338;48.280;10.970;2022-07-29T09:30:33;2.80;;;1.70;;
38567;SDS011;24338;48.280;10.970;2022-07-29T09:33:01;4.20;;;1.60;;
38567;SDS011;24338;48.280;10.970;2022-07-29T09:35:29;6.47;;;1.92;;
38567;SDS011;24338;48.280;10.970;2022-07-29T09:37:57;1.98;;;1.20;;
38567;SDS011;24338;48.280;10.970;2022-07-29T09:40:26;2.90;;;2.00;;
38567;SDS011;24338;48.280;10.970;2022-07-29T09:42:54;4.35;;;1.83;;
38567;SDS011;24338;48.280;10.970;2022-07-29T09:45:27;3.65;;;1.77;;
38567;SDS011;24338;48.280;10.970;2022-07-29T09:47:58;5.25;;;1.60;;
38567;SDS011;24338;48.280;10.970;2022-07-29T09:50:38;2.92;;;1.70;;
38567;SDS011;24338;48.280;10.970;2022-07-29T09:53:06;4.40;;;1.90;;
38567;SDS011;24338;48.280;10.970;2022-07-29T09:55:51;4.53;;;1.98;;
38567;SDS011;24338;48.280;10.970;2022-07-29T09:58:19;3.58;;;1.70;;
38567;SDS011;24338;48.280;10.970;2022-07-29T10:00:47;3.03;;;1.80;;
38567;SDS011;24338;48.280;10.970;2022-07-29T10:03:16;2.80;;;1.77;;
38567;SDS011;24338;48.280;10.970;2022-07-29T10:05:43;3.58;;;1.77;;
38567;SDS011;24338;48.280;10.970;2022-07-29T10:08:12;5.22;;;2.00;;
38567;SDS011;24338;48.280;10.970;2022-07-29T10:10:40;4.03;;;1.90;;
38567;SDS011;24338;48.280;10.970;2022-07-29T10:13:09;3.10;;;1.60;;
38567;SDS011;24338;48.280;10.970;2022-07-29T10:15:42;4.82;;;1.42;;
38567;SDS011;24338;48.280;10.970;2022-07-29T10:18:12;4.30;;;1.63;;
38567;SDS011;24338;48.280;10.970;2022-07-29T10:20:43;3.75;;;1.80;;
38567;SDS011;24338;48.280;10.970;2022-07-29T10:23:10;3.08;;;1.90;;
38567;SDS011;24338;48.280;10.970;2022-07-29T10:25:37;3.22;;;1.92;;
38567;SDS011;24338;48.280;10.970;2022-07-29T10:28:05;3.53;;;1.60;;
38567;SDS011;24338;48.280;10.970;2022-07-29T10:30:32;3.17;;;1.60;;
38567;SDS011;24338;48.280;10.970;2022-07-29T10:44:18;2.28;;;1.38;;
38567;SDS011;24338;48.280;10.970;2022-07-29T10:46:49;3.28;;;1.40;;
38567;SDS011;24338;48.280;10.970;2022-07-29T11:00:25;3.38;;;1.77;;
38567;SDS011;24338;48.280;10.970;2022-07-29T11:02:53;4.57;;;1.65;;
38567;SDS011;24338;48.280;10.970;2022-07-29T11:05:22;2.53;;;1.27;;
38567;SDS011;24338;48.280;10.970;2022-07-29T11:10:46;2.95;;;1.45;;
38567;SDS011;24338;48.280;10.970;2022-07-29T11:16:11;2.75;;;1.42;;
38567;SDS011;24338;48.280;10.970;2022-07-29T11:21:22;2.80;;;1.30;;
38567;SDS011;24338;48.280;10.970;2022-07-29T11:24:27;2.33;;;1.15;;
38567;SDS011;24338;48.280;10.970;2022-07-29T11:27:10;3.58;;;1.40;;
38567;SDS011;24338;48.280;10.970;2022-07-29T11:29:55;2.13;;;1.13;;
38567;SDS011;24338;48.280;10.970;2022-07-29T11:32:35;5.60;;;1.48;;
38567;SDS011;24338;48.280;10.970;2022-07-29T11:43:54;2.53;;;1.48;;
38567;SDS011;24338;48.280;10.970;2022-07-29T11:49:18;2.13;;;1.20;;
38567;SDS011;24338;48.280;10.970;2022-07-29T11:51:58;6.35;;;1.00;;
38567;SDS011;24338;48.280;10.970;2022-07-29T11:54:32;1.77;;;1.27;;
38567;SDS011;24338;48.280;10.970;2022-07-29T11:57:20;3.53;;;1.17;;
38567;SDS011;24338;48.280;10.970;2022-07-29T11:59:47;2.08;;;1.15;;
38567;SDS011;24338;48.280;10.970;2022-07-29T12:02:15;3.05;;;1.25;;
38567;SDS011;24338;48.280;10.970;2022-07-29T12:05:03;1.88;;;1.42;;
38567;SDS011;24338;48.280;10.970;2022-07-29T12:07:50;2.88;;;1.42;;
38567;SDS011;24338;48.280;10.970;2022-07-29T12:10:17;3.70;;;1.52;;
38567;SDS011;24338;48.280;10.970;2022-07-29T12:12:56;3.33;;;1.60;;
38567;SDS011;24338;48.280;10.970;2022-07-29T12:15:23;2.58;;;1.00;;
38567;SDS011;24338;48.280;10.970;2022-07-29T12:18:17;3.10;;;1.27;;
38567;SDS011;24338;48.280;10.970;2022-07-29T12:20:55;3.47;;;1.42;;
38567;SDS011;24338;48.280;10.970;2022-07-29T12:23:24;3.17;;;1.50;;
38567;SDS011;24338;48.280;10.970;2022-07-29T12:25:59;4.38;;;1.50;;
38567;SDS011;24338;48.280;10.970;2022-07-29T12:28:26;3.20;;;1.27;;
38567;SDS011;24338;48.280;10.970;2022-07-29T12:30:53;6.63;;;1.20;;
38567;SDS011;24338;48.280;10.970;2022-07-29T12:33:24;4.03;;;1.63;;
38567;SDS011;24338;48.280;10.970;2022-07-29T12:35:54;2.38;;;1.50;;
38567;SDS011;24338;48.280;10.970;2022-07-29T12:38:42;4.82;;;1.38;;
38567;SDS011;24338;48.280;10.970;2022-07-29T12:41:10;4.47;;;1.42;;
38567;SDS011;24338;48.280;10.970;2022-07-29T12:43:53;2.95;;;1.95;;
38567;SDS011;24338;48.280;10.970;2022-07-29T12:46:21;2.58;;;1.45;;
38567;SDS011;24338;48.280;10.970;2022-07-29T12:48:50;3.80;;;1.60;;
38567;SDS011;24338;48.280;10.970;2022-07-29T12:51:29;3.67;;;1.60;;
38567;SDS011;24338;48.280;10.970;2022-07-29T12:54:01;3.20;;;1.15;;
38567;SDS011;24338;48.280;10.970;2022-07-29T12:56:57;2.95;;;1.23;;
38567;SDS011;24338;48.280;10.970;2022-07-29T12:59:25;3.50;;;1.65;;
38567;SDS011;24338;48.280;10.970;2022-07-29T13:01:52;3.05;;;1.70;;
38567;SDS011;24338;48.280;10.970;2022-07-29T13:04:29;4.30;;;1.63;;
38567;SDS011;24338;48.280;10.970;2022-07-29T13:07:07;3.25;;;1.30;;
38567;SDS011;24338;48.280;10.970;2022-07-29T13:09:44;6.43;;;1.55;;
38567;SDS011;24338;48.280;10.970;2022-07-29T13:12:12;2.00;;;1.27;;
38567;SDS011;24338;48.280;10.970;2022-07-29T13:14:40;2.95;;;1.10;;
38567;SDS011;24338;48.280;10.970;2022-07-29T13:19:53;2.63;;;1.10;;
38567;SDS011;24338;48.280;10.970;2022-07-29T13:22:34;3.33;;;1.17;;
38567;SDS011;24338;48.280;10.970;2022-07-29T13:25:02;2.83;;;1.33;;
38567;SDS011;24338;48.280;10.970;2022-07-29T13:27:30;3.90;;;1.20;;
38567;SDS011;24338;48.280;10.970;2022-07-29T13:30:03;4.38;;;1.45;;
38567;SDS011;24338;48.280;10.970;2022-07-29T13:32:32;3.38;;;1.65;;
38567;SDS011;24338;48.280;10.970;2022-07-29T13:35:06;3.78;;;1.30;;
38567;SDS011;24338;48.280;10.970;2022-07-29T13:37:34;3.90;;;1.40;;
38567;SDS011;24338;48.280;10.970;2022-07-29T13:40:04;3.00;;;1.58;;
38567;SDS011;24338;48.280;10.970;2022-07-29T13:42:32;3.55;;;1.45;;
38567;SDS011;24338;48.280;10.970;2022-07-29T13:45:00;4.35;;;1.13;;
38567;SDS011;24338;48.280;10.970;2022-07-29T13:47:27;4.07;;;1.40;;
38567;SDS011;24338;48.280;10.970;2022-07-29T13:49:58;2.92;;;1.27;;
38567;SDS011;24338;48.280;10.970;2022-07-29T13:52:25;5.15;;;1.17;;
38567;SDS011;24338;48.280;10.970;2022-07-29T13:54:52;4.65;;;1.40;;
38567;SDS011;24338;48.280;10.970;2022-07-29T13:57:19;2.15;;;1.17;;
38567;SDS011;24338;48.280;10.970;2022-07-29T13:59:46;2.08;;;1.13;;
38567;SDS011;24338;48.280;10.970;2022-07-29T14:02:18;2.40;;;1.42;;
38567;SDS011;24338;48.280;10.970;2022-07-29T14:04:46;3.05;;;1.30;;
38567;SDS011;24338;48.280;10.970;2022-07-29T14:07:13;2.00;;;1.20;;
38567;SDS011;24338;48.280;10.970;2022-07-29T14:09:41;3.90;;;1.40;;
38567;SDS011;24338;48.280;10.970;2022-07-29T14:12:08;2.80;;;1.40;;
38567;SDS011;24338;48.280;10.970;2022-07-29T14:14:35;5.35;;;1.35;;
38567;SDS011;24338;48.280;10.970;2022-07-29T14:17:03;3.95;;;1.50;;
38567;SDS011;24338;48.280;10.970;2022-07-29T14:19:33;4.00;;;1.05;;
38567;SDS011;24338;48.280;10.970;2022-07-29T14:22:04;3.50;;;1.40;;
38567;SDS011;24338;48.280;10.970;2022-07-29T14:24:34;2.15;;;1.20;;
38567;SDS011;24338;48.280;10.970;2022-07-29T14:27:03;2.95;;;1.35;;
38567;SDS011;24338;48.280;10.970;2022-07-29T14:29:31;2.05;;;1.10;;
38567;SDS011;24338;48.280;10.970;2022-07-29T14:32:06;4.93;;;0.95;;
38567;SDS011;24338;48.280;10.970;2022-07-29T14:34:35;2.97;;;1.63;;
38567;SDS011;24338;48.280;10.970;2022-07-29T14:37:03;1.70;;;1.00;;
38567;SDS011;24338;48.280;10.970;2022-07-29T14:39:40;3.90;;;1.40;;
38567;SDS011;24338;48.280;10.970;2022-07-29T14:42:09;2.50;;;1.17;;
38567;SDS011;24338;48.280;10.970;2022-07-29T14:44:38;3.25;;;1.17;;
38567;SDS011;24338;48.280;10.970;2022-07-29T14:47:06;4.53;;;1.30;;
38567;SDS011;24338;48.280;10.970;2022-07-29T14:49:34;3.00;;;1.10;;
38567;SDS011;24338;48.280;10.970;2022-07-29T14:52:01;3.25;;;1.23;;
38567;SDS011;24338;48.280;10.970;2022-07-29T14:54:28;3.60;;;1.40;;
38567;SDS011;24338;48.280;10.970;2022-07-29T14:56:55;2.55;;;1.13;;
38567;SDS011;24338;48.280;10.970;2022-07-29T14:59:23;4.20;;;1.10;;
38567;SDS011;24338;48.280;10.970;2022-07-29T15:01:51;2.40;;;1.08;;
38567;SDS011;24338;48.280;10.970;2022-07-29T15:04:18;7.38;;;1.58;;
38567;SDS011;24338;48.280;10.970;2022-07-29T15:06:45;2.40;;;1.10;;
38567;SDS011;24338;48.280;10.970;2022-07-29T15:09:12;3.47;;;2.95;;
38567;SDS011;24338;48.280;10.970;2022-07-29T15:11:39;3.08;;;2.45;;
38567;SDS011;24338;48.280;10.970;2022-07-29T15:14:06;2.95;;;1.92;;
38567;SDS011;24338;48.280;10.970;2022-07-29T15:16:35;10.75;;;9.85;;
38567;SDS011;24338;48.280;10.970;2022-07-29T15:19:03;4.68;;;3.67;;
38567;SDS011;24338;48.280;10.970;2022-07-29T15:21:30;2.97;;;1.67;;
38567;SDS011;24338;48.280;10.970;2022-07-29T15:23:58;5.28;;;4.78;;
38567;SDS011;24338;48.280;10.970;2022-07-29T15:26:25;5.35;;;2.10;;
38567;SDS011;24338;48.280;10.970;2022-07-29T15:28:52;2.50;;;1.33;;
38567;SDS011;24338;48.280;10.970;2022-07-29T15:31:19;3.13;;;1.30;;
38567;SDS011;24338;48.280;10.970;2022-07-29T15:33:46;3.25;;;1.42;;
38567;SDS011;24338;48.280;10.970;2022-07-29T15:36:12;3.20;;;1.42;;
38567;SDS011;24338;48.280;10.970;2022-07-29T15:38:59;2.88;;;1.40;;
38567;SDS011;24338;48.280;10.970;2022-07-29T15:41:27;3.67;;;1.30;;
38567;SDS011;24338;48.280;10.970;2022-07-29T15:43:54;2.80;;;1.80;;
38567;SDS011;24338;48.280;10.970;2022-07-29T15:46:20;5.70;;;2.70;;
38567;SDS011;24338;48.280;10.970;2022-07-29T15:49:06;3.70;;;1.55;;
38567;SDS011;24338;48.280;10.970;2022-07-29T15:51:34;2.72;;;1.98;;
38567;SDS011;24338;48.280;10.970;2022-07-29T15:54:01;3.85;;;1.85;;
38567;SDS011;24338;48.280;10.970;2022-07-29T15:56:29;6.03;;;1.83;;